EmailTwitter


Surface observations / Quebec / CYUL (71627)

Regions: Quebec | Canada | USA | Europe | France | UK | Elsewhere
Station
Display
Info & Location for CYUL (71627) | Help decoding METAR

Weather Conditions observed on 2019/01/20 at 20:00 UTC at MONTREAL INTL A, QB (CYUL)

Sky conditions: overcast.

Obstruction(s) to Vision: light snow and moderate snow blowing.

Temperature: -17.0 Celsius.

Dewpoint: -20.0 Celsius.

Relative Humidity: 77%

Windchill Factor: -28.

Windchill Factor (Gusts): -30.

Winds: North at 24 km/h or 13 knots.

Gust: 41 km/h or 22 knots.

Mean Sea level Pressure: 100.63 kilopascals.

Altimeter Setting (QNH): 100.58 kilopascals or 29.70 inches of mercury.

Horizontal visibility: 1.50 statute miles or 2.40 kilometers.

Height of the Ceiling: 762 metres ( 2500 feet ).

Coded METAR:

CYUL 202000Z 01013G22KT 1 1/2SM -SN BLSN OVC025 M17/M20 A2970 RMK SN3SC5 /S03/

PRESRR SLP063=